Time;durP1;ratioP1;P1;durP2;ratioP2;P2;SDS_P1;SDS_P2;PMS_P1;PMS_P2;Temp;Humidity;BMP_temperature;BMP_pressure;BME280_temperature;BME280_humidity;BME280_pressure;Samples;Min_cycle;Max_cycle;Signal;HPM_P1;HPM_P2
2023/03/06 00:01:44;;;;;;;4.47;4.10;;;0.80;99.90;;;;;;4971540;28;20493;-56
2023/03/06 00:04:12;;;;;;;8.27;5.63;;;0.80;99.90;;;;;;4965281;28;20446;-56
2023/03/06 00:06:38;;;;;;;4.40;3.60;;;0.80;99.90;;;;;;4970394;28;20509;-56
2023/03/06 00:09:05;;;;;;;4.43;2.97;;;0.70;99.90;;;;;;4966268;28;20458;-56
2023/03/06 00:11:31;;;;;;;2.77;2.40;;;0.70;99.90;;;;;;4970698;28;20481;-56
2023/03/06 00:13:59;;;;;;;2.40;2.30;;;0.70;99.90;;;;;;4972486;28;20509;-56
2023/03/06 00:16:26;;;;;;;4.40;2.73;;;0.70;99.90;;;;;;4972334;28;20524;-56
2023/03/06 00:18:53;;;;;;;4.63;2.10;;;0.80;99.90;;;;;;4962774;28;20470;-55
2023/03/06 00:21:19;;;;;;;1.87;1.77;;;0.70;99.90;;;;;;4965643;28;20470;-57
2023/03/06 00:23:46;;;;;;;1.73;1.63;;;0.70;99.90;;;;;;4968964;28;20458;-55
2023/03/06 00:26:12;;;;;;;2.00;1.90;;;0.60;99.90;;;;;;4970850;28;20466;-56
2023/03/06 00:28:39;;;;;;;1.87;1.33;;;0.60;99.90;;;;;;4972364;28;20454;-56
2023/03/06 00:31:07;;;;;;;1.83;1.50;;;0.60;99.90;;;;;;4970163;28;20459;-56
2023/03/06 00:33:34;;;;;;;1.73;1.40;;;0.60;99.90;;;;;;4972596;28;20532;-55
2023/03/06 00:36:00;;;;;;;1.50;1.40;;;0.60;99.90;;;;;;4976403;28;20971;-56
2023/03/06 00:38:30;;;;;;;2.27;2.07;;;0.60;99.90;;;;;;4976923;28;20540;-55
2023/03/06 00:40:56;;;;;;;2.43;1.50;;;0.60;99.90;;;;;;4976533;28;20814;-56
2023/03/06 00:43:23;;;;;;;2.00;1.80;;;0.60;99.90;;;;;;4967244;28;20541;-55
2023/03/06 00:45:50;;;;;;;3.37;2.10;;;0.60;99.90;;;;;;4970451;28;20470;-56
2023/03/06 00:48:18;;;;;;;1.53;1.40;;;0.60;99.90;;;;;;4976218;28;20449;-57
2023/03/06 00:50:44;;;;;;;2.37;1.93;;;0.60;99.90;;;;;;4975989;28;20850;-56
2023/03/06 00:53:12;;;;;;;2.00;1.37;;;0.50;99.90;;;;;;4967052;28;20486;-56
2023/03/06 00:55:38;;;;;;;3.20;1.90;;;0.50;99.90;;;;;;4974910;28;20476;-56
2023/03/06 00:58:05;;;;;;;1.67;1.57;;;0.50;99.90;;;;;;4974385;28;20868;-55
2023/03/06 01:00:31;;;;;;;1.70;1.60;;;0.40;99.90;;;;;;4975920;28;20501;-56
2023/03/06 01:02:58;;;;;;;1.57;1.50;;;0.40;99.90;;;;;;4972425;28;20482;-56
2023/03/06 01:05:26;;;;;;;2.07;1.80;;;0.40;99.90;;;;;;4973914;28;20470;-56
2023/03/06 01:07:52;;;;;;;1.90;1.80;;;0.40;99.90;;;;;;4974548;28;20960;-56
2023/03/06 01:10:19;;;;;;;1.63;1.53;;;0.40;99.90;;;;;;4973847;28;20544;-56
2023/03/06 01:12:46;;;;;;;5.03;1.97;;;0.40;99.90;;;;;;4972714;28;20941;-56
2023/03/06 01:15:13;;;;;;;1.73;1.63;;;0.30;99.90;;;;;;4973260;28;20462;-56
2023/03/06 01:17:40;;;;;;;2.00;1.90;;;0.40;99.00;;;;;;4975300;28;20563;-56
2023/03/06 01:20:07;;;;;;;3.53;2.07;;;0.40;96.60;;;;;;4975567;28;20446;-56
2023/03/06 01:22:35;;;;;;;3.20;2.47;;;0.40;96.20;;;;;;4974878;28;20489;-55
2023/03/06 01:25:02;;;;;;;2.17;1.93;;;0.40;94.50;;;;;;4974309;28;21030;-56
2023/03/06 01:27:28;;;;;;;2.03;1.90;;;0.40;93.50;;;;;;4975505;28;20501;-57
2023/03/06 01:29:55;;;;;;;3.63;2.53;;;0.40;92.60;;;;;;4974576;28;20453;-56
2023/03/06 01:32:22;;;;;;;2.70;2.60;;;0.40;91.80;;;;;;4973069;28;20505;-56
2023/03/06 01:34:48;;;;;;;2.83;2.50;;;0.40;90.50;;;;;;4973990;28;20462;-56
2023/03/06 01:37:15;;;;;;;2.77;2.60;;;0.40;89.70;;;;;;4969897;28;20548;-56
2023/03/06 01:39:43;;;;;;;3.40;3.10;;;0.50;88.30;;;;;;4974608;28;20494;-56
2023/03/06 01:42:10;;;;;;;3.17;2.73;;;0.50;88.60;;;;;;4974276;28;20509;-52
2023/03/06 01:44:36;;;;;;;2.63;2.43;;;0.50;87.60;;;;;;4974368;28;20524;-53
2023/03/06 01:47:03;;;;;;;2.53;2.43;;;0.50;86.90;;;;;;4975132;28;20454;-52
2023/03/06 01:49:34;;;;;;;2.93;2.63;;;0.40;88.00;;;;;;4971376;28;20521;-51
2023/03/06 01:52:05;;;;;;;2.87;2.57;;;0.50;87.60;;;;;;4974414;28;20552;-51
2023/03/06 01:54:35;;;;;;;2.20;2.10;;;0.50;87.30;;;;;;4972780;28;20474;-51
2023/03/06 01:57:09;;;;;;;2.30;2.20;;;0.60;86.40;;;;;;4969889;28;20501;-51
2023/03/06 01:59:37;;;;;;;2.57;2.47;;;0.60;87.10;;;;;;4972733;28;20467;-51
2023/03/06 02:02:07;;;;;;;2.27;2.13;;;0.50;87.90;;;;;;4972985;28;20486;-51
2023/03/06 02:04:36;;;;;;;2.90;2.70;;;0.50;88.10;;;;;;4970956;28;20466;-51
2023/03/06 02:07:04;;;;;;;2.33;2.23;;;0.50;89.50;;;;;;4968172;28;20462;-51
2023/03/06 02:09:32;;;;;;;2.40;2.30;;;0.60;89.00;;;;;;4968664;28;20965;-50
2023/03/06 02:11:59;;;;;;;2.80;2.60;;;0.60;88.80;;;;;;4973535;28;20485;-51
2023/03/06 02:14:28;;;;;;;3.00;2.80;;;0.50;91.60;;;;;;4972847;28;20960;-51
2023/03/06 02:16:55;;;;;;;2.73;2.53;;;0.50;89.50;;;;;;4972180;28;20526;-51
2023/03/06 02:19:34;;;;;;;3.80;3.60;;;0.50;89.50;;;;;;4972096;28;21078;-51
2023/03/06 02:22:01;;;;;;;3.67;3.40;;;0.60;88.30;;;;;;4971366;28;20861;-51
2023/03/06 02:24:36;;;;;;;3.50;3.20;;;0.60;88.90;;;;;;4963111;28;20490;-51
2023/03/06 02:27:06;;;;;;;3.93;3.63;;;0.60;87.40;;;;;;4972605;28;20892;-51
2023/03/06 02:29:33;;;;;;;3.70;3.47;;;0.60;87.70;;;;;;4971784;28;20517;-51
2023/03/06 02:31:59;;;;;;;3.97;3.67;;;0.60;87.40;;;;;;4970400;28;20524;-53
2023/03/06 02:34:48;;;;;;;3.30;3.10;;;0.60;86.80;;;;;;4969227;28;20502;-51
2023/03/06 02:37:14;;;;;;;3.67;3.47;;;0.60;85.80;;;;;;4971929;28;20490;-52
2023/03/06 02:39:46;;;;;;;3.60;2.97;;;0.70;85.20;;;;;;4968808;28;20504;-51
2023/03/06 02:42:19;;;;;;;3.50;3.30;;;0.70;84.90;;;;;;4971691;28;20541;-51
2023/03/06 02:44:45;;;;;;;3.30;3.10;;;0.70;83.80;;;;;;4969377;28;20490;-51
2023/03/06 02:47:12;;;;;;;4.20;3.90;;;0.80;82.90;;;;;;4973198;28;20494;-51
2023/03/06 02:49:38;;;;;;;5.70;2.93;;;0.80;82.30;;;;;;4966117;28;20467;-52
2023/03/06 02:52:06;;;;;;;3.43;3.13;;;0.90;81.70;;;;;;4963485;28;20518;-51
2023/03/06 02:54:33;;;;;;;3.33;3.13;;;0.80;80.70;;;;;;4965477;28;20954;-51
2023/03/06 02:56:59;;;;;;;3.00;2.80;;;0.90;80.70;;;;;;4973431;28;20488;-52
2023/03/06 02:59:27;;;;;;;3.63;3.33;;;0.90;80.80;;;;;;4969687;28;20524;-51
2023/03/06 03:01:54;;;;;;;4.63;3.70;;;0.90;80.80;;;;;;4970737;28;20518;-52
2023/03/06 03:04:20;;;;;;;5.30;3.00;;;0.90;80.90;;;;;;4971446;28;20557;-51
2023/03/06 03:06:47;;;;;;;3.87;3.53;;;0.90;80.70;;;;;;4972456;28;20486;-51
2023/03/06 03:09:13;;;;;;;4.07;3.67;;;0.90;80.80;;;;;;4972273;28;20513;-51
2023/03/06 03:11:40;;;;;;;3.77;3.47;;;0.90;80.50;;;;;;4972772;28;20485;-52
2023/03/06 03:14:06;;;;;;;3.20;2.90;;;1.00;80.70;;;;;;4963604;28;20499;-51
2023/03/06 03:16:34;;;;;;;3.90;3.60;;;0.90;80.90;;;;;;4970648;28;20508;-51
2023/03/06 03:19:01;;;;;;;3.90;3.60;;;1.00;80.60;;;;;;4971806;28;20517;-52
2023/03/06 03:21:27;;;;;;;3.60;3.40;;;0.90;80.70;;;;;;4968964;28;20556;-52
2023/03/06 03:23:54;;;;;;;4.73;4.10;;;1.00;80.30;;;;;;4970271;28;20489;-53
2023/03/06 03:26:22;;;;;;;3.73;3.27;;;1.00;80.60;;;;;;4970936;28;20855;-52
2023/03/06 03:28:48;;;;;;;3.93;3.73;;;0.90;81.00;;;;;;4971750;28;20494;-51
2023/03/06 03:31:15;;;;;;;4.20;3.90;;;0.90;80.70;;;;;;4970928;28;20520;-52
2023/03/06 03:33:43;;;;;;;4.40;4.00;;;0.90;80.60;;;;;;4971840;28;20517;-52
2023/03/06 03:36:09;;;;;;;3.83;3.53;;;1.00;80.10;;;;;;4968692;28;20505;-51
2023/03/06 03:38:36;;;;;;;4.30;3.73;;;0.90;80.00;;;;;;4973127;28;20999;-51
2023/03/06 03:41:04;;;;;;;4.00;3.70;;;0.90;80.70;;;;;;4971207;28;20501;-51
2023/03/06 03:43:31;;;;;;;3.47;3.27;;;0.80;81.40;;;;;;4970316;28;20591;-52
2023/03/06 03:45:57;;;;;;;3.40;3.20;;;0.80;82.30;;;;;;4971794;28;20505;-52
2023/03/06 03:48:24;;;;;;;2.53;2.37;;;0.80;81.30;;;;;;4969842;28;20545;-51
2023/03/06 03:50:52;;;;;;;2.23;2.10;;;0.60;83.80;;;;;;4972178;28;20502;-51
2023/03/06 03:53:18;;;;;;;2.20;2.10;;;0.60;85.20;;;;;;4972758;28;20560;-51
2023/03/06 03:55:46;;;;;;;2.00;1.80;;;0.50;85.00;;;;;;4973746;28;20492;-52
2023/03/06 03:58:12;;;;;;;2.13;2.03;;;0.50;83.40;;;;;;4975600;28;20524;-53
2023/03/06 04:00:39;;;;;;;2.47;2.27;;;0.50;84.40;;;;;;4973835;28;20493;-52
2023/03/06 04:03:06;;;;;;;2.03;1.97;;;0.50;84.20;;;;;;4972071;28;20936;-51
2023/03/06 04:05:32;;;;;;;2.30;2.20;;;0.50;85.60;;;;;;4973968;28;20498;-52
2023/03/06 04:08:01;;;;;;;2.30;2.17;;;0.40;85.60;;;;;;4976604;28;20450;-51
2023/03/06 04:10:28;;;;;;;1.70;1.67;;;0.40;85.70;;;;;;4977002;28;20454;-52
2023/03/06 04:12:55;;;;;;;3.30;2.00;;;0.40;85.00;;;;;;4976444;28;20474;-52
2023/03/06 04:15:21;;;;;;;1.80;1.70;;;0.40;85.60;;;;;;4975727;28;21002;-51
2023/03/06 04:17:48;;;;;;;2.30;2.07;;;0.40;84.70;;;;;;4975417;28;20955;-51
2023/03/06 04:20:14;;;;;;;1.70;1.60;;;0.40;85.60;;;;;;4975561;28;20493;-52
2023/03/06 04:22:41;;;;;;;1.97;1.87;;;0.30;89.10;;;;;;4976438;28;20504;-52
2023/03/06 04:25:10;;;;;;;1.80;1.70;;;0.30;88.80;;;;;;4975908;28;20497;-51
2023/03/06 04:27:36;;;;;;;1.67;1.57;;;0.30;88.00;;;;;;4976233;28;20666;-51
2023/03/06 04:30:03;;;;;;;2.30;2.20;;;0.30;86.60;;;;;;4976131;28;20481;-51
2023/03/06 04:32:30;;;;;;;1.83;1.70;;;0.30;87.20;;;;;;4975774;28;20494;-51
2023/03/06 04:34:56;;;;;;;2.37;2.27;;;0.30;86.70;;;;;;4970149;28;20948;-51
2023/03/06 04:37:25;;;;;;;2.00;1.90;;;0.30;86.50;;;;;;4973705;28;20497;-51
2023/03/06 04:39:52;;;;;;;2.10;2.00;;;0.30;88.50;;;;;;4967418;28;20605;-52
2023/03/06 04:42:19;;;;;;;2.50;2.40;;;0.40;87.00;;;;;;4970447;28;20918;-52
2023/03/06 04:44:46;;;;;;;2.50;2.30;;;0.40;86.60;;;;;;4973856;28;20509;-52
2023/03/06 04:47:13;;;;;;;1.77;1.67;;;0.40;87.00;;;;;;4974491;28;20553;-51
2023/03/06 04:49:39;;;;;;;2.27;2.07;;;0.40;87.10;;;;;;4964674;28;20497;-51
2023/03/06 04:52:06;;;;;;;3.60;2.40;;;0.40;88.70;;;;;;4963948;28;20516;-52
2023/03/06 04:54:33;;;;;;;2.37;2.27;;;0.40;88.30;;;;;;4973799;28;21155;-51
2023/03/06 04:56:59;;;;;;;2.30;2.20;;;0.50;88.50;;;;;;4975467;28;20449;-51
2023/03/06 04:59:27;;;;;;;2.43;2.33;;;0.40;89.60;;;;;;4975061;28;20528;-51
2023/03/06 05:01:54;;;;;;;2.60;2.40;;;0.40;90.30;;;;;;4965528;28;20521;-52
2023/03/06 05:04:21;;;;;;;2.60;2.37;;;0.30;91.80;;;;;;4974130;28;20555;-51
2023/03/06 05:06:47;;;;;;;2.00;1.90;;;0.30;92.20;;;;;;4973758;28;20497;-51
2023/03/06 05:09:14;;;;;;;2.37;2.17;;;0.30;91.10;;;;;;4974437;28;20500;-51
2023/03/06 05:11:40;;;;;;;5.57;2.00;;;0.20;93.20;;;;;;4974112;28;20486;-52
2023/03/06 05:14:07;;;;;;;2.63;2.40;;;0.30;90.20;;;;;;4971466;28;20535;-52
2023/03/06 05:16:35;;;;;;;2.03;1.93;;;0.30;89.40;;;;;;4962190;28;20507;-51
2023/03/06 05:19:01;;;;;;;2.73;2.53;;;0.20;90.80;;;;;;4968730;28;20509;-50
2023/03/06 05:21:28;;;;;;;2.27;2.10;;;0.20;89.90;;;;;;4972913;28;20535;-51
2023/03/06 05:23:54;;;;;;;2.40;2.20;;;0.30;89.10;;;;;;4965116;28;20506;-51
2023/03/06 05:26:21;;;;;;;2.33;2.23;;;0.20;89.20;;;;;;4971249;28;20505;-52
2023/03/06 05:28:48;;;;;;;2.33;2.23;;;0.20;90.70;;;;;;4966597;28;20515;-51
2023/03/06 05:31:14;;;;;;;2.87;2.67;;;0.30;89.40;;;;;;4966022;28;20463;-51
2023/03/06 05:33:42;;;;;;;4.10;2.27;;;0.30;89.30;;;;;;4970744;28;20490;-52
2023/03/06 05:36:09;;;;;;;2.53;2.33;;;0.30;89.60;;;;;;4973790;28;20509;-52
2023/03/06 05:38:36;;;;;;;2.63;2.20;;;0.30;90.50;;;;;;4973635;28;21019;-52
2023/03/06 05:41:02;;;;;;;4.60;2.10;;;0.20;91.20;;;;;;4971036;28;20477;-52
2023/03/06 05:43:29;;;;;;;4.73;1.97;;;0.20;91.00;;;;;;4970908;28;20556;-53
2023/03/06 05:46:01;;;;;;;6.50;2.53;;;0.20;89.70;;;;;;4971531;28;20490;-51
2023/03/06 05:48:28;;;;;;;2.27;2.10;;;0.30;88.10;;;;;;4969254;28;20466;-52
2023/03/06 05:50:57;;;;;;;2.43;2.33;;;0.30;88.20;;;;;;4963065;28;20473;-52
2023/03/06 05:53:23;;;;;;;2.13;1.77;;;0.30;88.30;;;;;;4969837;28;20518;-51
2023/03/06 05:55:56;;;;;;;7.90;1.87;;;0.30;87.90;;;;;;4972727;28;20470;-51
2023/03/06 05:58:22;;;;;;;5.37;1.90;;;0.30;88.20;;;;;;4971318;28;20494;-52
2023/03/06 06:00:49;;;;;;;2.20;2.10;;;0.30;90.70;;;;;;4972170;28;20883;-52
2023/03/06 06:03:15;;;;;;;3.37;2.73;;;0.30;91.00;;;;;;4973142;28;20513;-51
2023/03/06 06:05:42;;;;;;;4.00;2.70;;;0.30;89.90;;;;;;4967376;28;20466;-51
2023/03/06 06:08:11;;;;;;;2.30;2.20;;;0.30;89.50;;;;;;4965075;28;21079;-51
2023/03/06 06:10:38;;;;;;;2.90;2.20;;;0.30;89.30;;;;;;4972606;28;20497;-51
2023/03/06 06:13:05;;;;;;;2.33;2.23;;;0.30;89.60;;;;;;4970496;28;20486;-52
2023/03/06 06:15:31;;;;;;;15.33;8.10;;;0.30;91.30;;;;;;4969848;28;20465;-52
2023/03/06 06:17:58;;;;;;;3.30;3.20;;;0.20;95.20;;;;;;4971767;28;20926;-51
2023/03/06 06:20:26;;;;;;;2.37;2.20;;;0.20;93.90;;;;;;4967893;28;20525;-53
2023/03/06 06:22:52;;;;;;;4.57;2.27;;;0.30;93.10;;;;;;4965411;28;20497;-51
2023/03/06 06:25:20;;;;;;;3.37;3.10;;;0.30;91.20;;;;;;4971404;28;20501;-51
2023/03/06 06:27:47;;;;;;;6.23;5.73;;;0.40;91.60;;;;;;4972035;28;20490;-51
2023/03/06 06:30:14;;;;;;;4.00;3.63;;;0.40;93.00;;;;;;4968590;28;20466;-52
2023/03/06 06:32:40;;;;;;;3.23;2.97;;;0.40;93.60;;;;;;4970288;28;20521;-51
2023/03/06 06:35:07;;;;;;;5.60;3.30;;;0.40;95.40;;;;;;4967674;28;20463;-50
2023/03/06 06:37:34;;;;;;;7.50;4.73;;;0.30;98.90;;;;;;4967573;28;20500;-52
2023/03/06 06:40:01;;;;;;;4.60;3.57;;;0.40;97.50;;;;;;4969196;28;20525;-51
2023/03/06 06:42:28;;;;;;;3.70;3.40;;;0.40;97.40;;;;;;4969944;28;20536;-51
2023/03/06 06:44:55;;;;;;;3.43;3.13;;;0.50;98.20;;;;;;4971871;28;20539;-51
2023/03/06 06:47:22;;;;;;;3.60;3.33;;;0.50;97.30;;;;;;4972260;28;20454;-51
2023/03/06 06:49:50;;;;;;;3.33;3.03;;;0.50;99.90;;;;;;4972222;28;20571;-51
2023/03/06 06:52:17;;;;;;;3.67;3.37;;;0.40;99.90;;;;;;4967040;28;20485;-51
2023/03/06 06:54:44;;;;;;;4.10;3.30;;;0.50;99.20;;;;;;4970235;28;20952;-51
2023/03/06 06:57:11;;;;;;;2.53;2.33;;;0.50;99.90;;;;;;4965112;28;20900;-51
2023/03/06 06:59:39;;;;;;;3.63;3.23;;;0.50;99.90;;;;;;4968290;28;20554;-52
2023/03/06 07:02:06;;;;;;;4.23;3.83;;;0.60;99.30;;;;;;4968269;28;20525;-52
2023/03/06 07:04:32;;;;;;;3.50;3.40;;;0.60;99.90;;;;;;4972306;28;20951;-51
2023/03/06 07:06:59;;;;;;;6.70;3.77;;;0.60;99.20;;;;;;4971058;28;20521;-51
2023/03/06 07:09:26;;;;;;;5.33;3.17;;;0.60;99.90;;;;;;4970871;28;20462;-51
2023/03/06 07:11:53;;;;;;;3.63;3.33;;;0.60;99.90;;;;;;4972566;28;20520;-51
2023/03/06 07:14:19;;;;;;;3.73;3.43;;;0.70;99.90;;;;;;4966067;28;20478;-51
2023/03/06 07:16:47;;;;;;;3.13;2.93;;;0.70;99.90;;;;;;4963642;28;20987;-51
2023/03/06 07:19:14;;;;;;;3.23;3.03;;;0.80;99.90;;;;;;4947539;28;20569;-52
2023/03/06 07:21:41;;;;;;;3.00;2.83;;;0.70;99.90;;;;;;4961874;28;20561;-51
2023/03/06 07:24:08;;;;;;;6.90;3.60;;;0.70;99.90;;;;;;4965970;28;21017;-52
2023/03/06 07:26:35;;;;;;;3.43;3.07;;;0.80;99.90;;;;;;4967556;28;20494;-52
2023/03/06 07:29:02;;;;;;;2.80;2.60;;;0.90;99.90;;;;;;4960505;28;20462;-52
2023/03/06 07:31:28;;;;;;;4.30;3.20;;;0.90;99.90;;;;;;4961326;28;20470;-52
2023/03/06 07:33:56;;;;;;;2.80;2.70;;;1.00;99.90;;;;;;4961190;28;20486;-51
2023/03/06 07:36:23;;;;;;;3.50;3.27;;;1.10;99.90;;;;;;4960903;28;20561;-51
2023/03/06 07:38:50;;;;;;;2.90;2.70;;;1.00;99.90;;;;;;4965240;28;20476;-51
2023/03/06 07:41:17;;;;;;;2.87;2.67;;;0.80;99.90;;;;;;4960200;28;20525;-51
2023/03/06 07:43:45;;;;;;;2.80;2.70;;;1.00;99.90;;;;;;4969871;23;20492;-53
2023/03/06 07:46:13;;;;;;;3.27;3.07;;;1.00;99.90;;;;;;4925836;29;21006;-53
2023/03/06 07:48:40;;;;;;;3.30;3.10;;;1.00;99.90;;;;;;4933780;29;20483;-52
2023/03/06 07:51:11;;;;;;;3.70;3.50;;;1.10;99.90;;;;;;4931526;29;20496;-52
2023/03/06 07:53:38;;;;;;;3.50;3.27;;;1.10;99.90;;;;;;4921151;29;20511;-52
2023/03/06 07:56:07;;;;;;;3.67;3.47;;;1.00;99.90;;;;;;4928137;29;20472;-53
2023/03/06 07:58:34;;;;;;;4.50;4.20;;;1.10;99.90;;;;;;4932998;29;20543;-53
2023/03/06 08:01:04;;;;;;;4.33;3.93;;;1.20;99.90;;;;;;4930982;29;20562;-52
2023/03/06 08:03:30;;;;;;;4.63;4.33;;;1.00;99.90;;;;;;4930155;29;20524;-52
2023/03/06 08:06:09;;;;;;;7.60;5.37;;;1.10;99.90;;;;;;4926819;29;20456;-53
2023/03/06 08:08:38;;;;;;;5.53;5.00;;;1.20;99.90;;;;;;4921094;29;20467;-52
2023/03/06 08:11:05;;;;;;;5.43;4.93;;;1.10;99.90;;;;;;4922306;29;20823;-52
2023/03/06 08:13:31;;;;;;;4.00;3.80;;;1.20;99.90;;;;;;4928060;29;20566;-52
2023/03/06 08:15:58;;;;;;;4.60;4.20;;;1.10;99.90;;;;;;4922213;29;20487;-52
2023/03/06 08:18:25;;;;;;;4.47;4.17;;;1.20;99.90;;;;;;4924785;29;20468;-53
2023/03/06 08:21:01;;;;;;;4.73;4.30;;;1.10;99.90;;;;;;4926222;29;20577;-53
2023/03/06 08:23:29;;;;;;;3.83;3.53;;;1.20;99.90;;;;;;4921419;29;20531;-52
2023/03/06 08:25:56;;;;;;;4.87;4.47;;;1.30;99.90;;;;;;4922628;29;20499;-53
2023/03/06 08:28:23;;;;;;;4.53;4.17;;;1.20;99.90;;;;;;4920705;29;20483;-53
2023/03/06 08:30:49;;;;;;;4.57;4.27;;;1.30;99.90;;;;;;4924022;29;20487;-53
2023/03/06 08:33:16;;;;;;;4.73;4.23;;;1.40;99.90;;;;;;4923635;29;20499;-52
2023/03/06 08:35:43;;;;;;;5.20;4.13;;;1.40;99.90;;;;;;4923147;29;20952;-52
2023/03/06 08:38:09;;;;;;;4.57;4.23;;;1.30;99.90;;;;;;4923485;29;20836;-52
2023/03/06 08:40:37;;;;;;;4.77;4.37;;;1.20;99.90;;;;;;4926456;29;20519;-52
2023/03/06 08:43:04;;;;;;;4.60;4.10;;;1.30;99.90;;;;;;4934701;29;20522;-53
2023/03/06 08:45:31;;;;;;;3.80;3.60;;;1.30;99.90;;;;;;4936769;29;20518;-52
2023/03/06 08:47:57;;;;;;;5.27;3.60;;;1.40;99.90;;;;;;4937583;29;21021;-52
2023/03/06 08:50:24;;;;;;;3.57;3.37;;;1.50;99.90;;;;;;4934861;29;20498;-52
2023/03/06 08:52:51;;;;;;;3.50;3.40;;;1.50;99.90;;;;;;4930528;29;20878;-53
2023/03/06 08:55:17;;;;;;;4.20;3.70;;;1.50;99.90;;;;;;4934835;29;20920;-52
2023/03/06 08:57:45;;;;;;;3.57;3.30;;;1.50;99.90;;;;;;4947722;29;20889;-52
2023/03/06 09:00:13;;;;;;;3.80;3.50;;;1.60;99.90;;;;;;4939653;29;20531;-53
2023/03/06 09:02:40;;;;;;;4.87;3.23;;;1.60;99.90;;;;;;4937145;29;20458;-53
2023/03/06 09:05:08;;;;;;;5.40;3.10;;;1.70;99.90;;;;;;4932626;29;20505;-53
2023/03/06 09:07:34;;;;;;;4.83;4.43;;;1.70;99.90;;;;;;4925355;29;20519;-52
2023/03/06 09:10:02;;;;;;;8.93;6.87;;;1.70;99.90;;;;;;4929401;29;20973;-52
2023/03/06 09:12:28;;;;;;;6.43;5.93;;;1.60;99.90;;;;;;4930176;29;20471;-53
2023/03/06 09:14:56;;;;;;;4.80;4.40;;;1.60;99.90;;;;;;4925719;29;20519;-53
2023/03/06 09:17:23;;;;;;;4.37;4.03;;;1.50;99.90;;;;;;4926093;29;20515;-53
2023/03/06 09:19:51;;;;;;;4.00;3.70;;;1.70;99.90;;;;;;4928703;29;20495;-53
2023/03/06 09:22:17;;;;;;;3.60;3.30;;;1.80;99.90;;;;;;4924820;29;20558;-53
2023/03/06 09:24:44;;;;;;;4.40;4.00;;;1.70;99.90;;;;;;4923025;29;20524;-53
2023/03/06 09:27:11;;;;;;;6.63;5.63;;;1.80;99.90;;;;;;4925552;29;20514;-53
2023/03/06 09:29:37;;;;;;;4.40;3.90;;;1.80;99.90;;;;;;4923700;29;20467;-53
2023/03/06 09:32:06;;;;;;;8.17;5.40;;;1.80;99.90;;;;;;4924333;29;20886;-53
2023/03/06 09:34:33;;;;;;;15.90;6.27;;;1.70;84.90;;;;;;4928989;29;20594;-53
2023/03/06 09:37:01;;;;;;;5.00;4.20;;;1.80;99.90;;;;;;4932195;29;20512;-53
2023/03/06 09:39:28;;;;;;;8.27;5.07;;;1.80;99.90;;;;;;4933997;29;20464;-53
2023/03/06 09:41:56;;;;;;;5.93;3.87;;;1.80;30.10;;;;;;4931531;29;20495;-53
2023/03/06 09:44:26;;;;;;;2.83;2.20;;;1.70;21.30;;;;;;4934216;29;20578;-52
2023/03/06 09:47:07;;;;;;;1.80;1.70;;;1.70;99.90;;;;;;4929393;29;20597;-51
2023/03/06 09:49:54;;;;;;;5.53;4.43;;;1.80;99.90;;;;;;4932853;29;20520;-51
2023/03/06 09:52:30;;;;;;;9.73;4.70;;;1.80;38.20;;;;;;4925344;29;20558;-50
2023/03/06 09:55:01;;;;;;;2.77;2.63;;;2.00;37.50;;;;;;4926927;29;20842;-51
2023/03/06 09:57:34;;;;;;;2.97;2.40;;;1.90;96.00;;;;;;4925846;29;20483;-51
2023/03/06 10:00:05;;;;;;;3.70;3.40;;;2.00;99.90;;;;;;4924694;29;21100;-49
2023/03/06 10:02:38;;;;;;;5.97;3.30;;;2.00;99.90;;;;;;4924765;29;21012;-51
2023/03/06 10:05:13;;;;;;;2.23;2.13;;;2.10;99.90;;;;;;4924976;29;20489;-51
2023/03/06 10:07:46;;;;;;;4.33;3.10;;;1.90;99.90;;;;;;4931928;29;20511;-50
2023/03/06 10:10:19;;;;;;;2.67;2.47;;;2.10;93.10;;;;;;4930047;29;20456;-53
2023/03/06 10:12:53;;;;;;;9.50;2.20;;;1.90;99.90;;;;;;4930090;29;20495;-50
2023/03/06 10:15:23;;;;;;;2.30;2.10;;;1.90;99.90;;;;;;4929625;29;20903;-51
2023/03/06 10:17:50;;;;;;;2.23;2.13;;;1.80;99.90;;;;;;4929234;29;20498;-52
2023/03/06 10:20:21;;;;;;;6.23;2.00;;;1.90;99.90;;;;;;4924578;29;20517;-52
2023/03/06 10:23:03;;;;;;;4.30;1.53;;;2.00;99.90;;;;;;4920435;29;20499;-51
2023/03/06 10:25:36;;;;;;;3.43;1.53;;;2.10;91.20;;;;;;4922877;29;20562;-51
2023/03/06 10:28:10;;;;;;;3.30;1.90;;;2.00;88.40;;;;;;4919545;29;20499;-51
2023/03/06 10:30:43;;;;;;;3.63;2.70;;;2.00;97.80;;;;;;4922095;29;20509;-52
2023/03/06 10:33:21;;;;;;;2.50;2.30;;;2.10;99.90;;;;;;4929003;29;20491;-51
2023/03/06 10:35:51;;;;;;;3.70;3.23;;;2.10;81.80;;;;;;4928174;29;20572;-52
2023/03/06 10:38:20;;;;;;;3.13;2.23;;;2.10;58.90;;;;;;4920835;29;20842;-51
2023/03/06 10:41:00;;;;;;;4.00;2.33;;;2.10;90.00;;;;;;4927850;29;20539;-52
2023/03/06 10:43:27;;;;;;;1.90;1.80;;;2.10;96.70;;;;;;4925669;29;20519;-51
2023/03/06 10:45:54;;;;;;;6.30;1.93;;;2.10;93.30;;;;;;4916591;29;20969;-51
2023/03/06 10:48:23;;;;;;;3.10;1.93;;;2.10;77.20;;;;;;4929613;29;20499;-51
2023/03/06 10:50:52;;;;;;;2.40;2.20;;;2.20;81.30;;;;;;4930561;29;20456;-51
2023/03/06 10:53:25;;;;;;;1.83;1.73;;;2.20;94.80;;;;;;4930507;29;20464;-51
2023/03/06 10:55:54;;;;;;;7.73;3.13;;;2.30;86.00;;;;;;4927302;29;20984;-50
2023/03/06 10:58:24;;;;;;;3.63;3.40;;;2.30;76.40;;;;;;4922479;29;20472;-51
2023/03/06 11:01:06;;;;;;;1.70;1.60;;;2.20;93.70;;;;;;4927335;29;20499;-51
2023/03/06 11:03:34;;;;;;;3.30;1.90;;;2.30;93.80;;;;;;4931143;29;20515;-51
2023/03/06 11:06:13;;;;;;;3.47;1.63;;;2.30;91.50;;;;;;4926019;29;20464;-50
2023/03/06 11:08:42;;;;;;;2.07;1.63;;;2.30;99.90;;;;;;4929291;29;20471;-51
2023/03/06 11:11:12;;;;;;;3.83;1.63;;;2.20;99.90;;;;;;4926739;29;20491;-51
2023/03/06 11:13:42;;;;;;;1.63;1.53;;;2.20;99.90;;;;;;4925358;29;20508;-51
2023/03/06 11:16:18;;;;;;;3.23;1.43;;;2.20;92.10;;;;;;4932345;29;20467;-50
2023/03/06 11:18:56;;;;;;;1.60;1.50;;;2.30;99.00;;;;;;4932322;29;20539;-50
2023/03/06 11:21:27;;;;;;;5.60;2.73;;;2.30;99.90;;;;;;4932643;29;20550;-51
2023/03/06 11:23:55;;;;;;;2.87;2.17;;;2.30;97.30;;;;;;4929114;29;21104;-50
2023/03/06 11:26:41;;;;;;;2.10;1.60;;;2.30;78.20;;;;;;4932259;29;20570;-51
2023/03/06 11:29:18;;;;;;;5.50;2.27;;;2.30;99.90;;;;;;4925516;29;20973;-50
2023/03/06 11:31:50;;;;;;;2.70;1.90;;;2.40;99.90;;;;;;4924703;29;20469;-51
2023/03/06 11:34:26;;;;;;;5.90;2.43;;;2.50;99.90;;;;;;4927549;29;20587;-51
2023/03/06 11:37:00;;;;;;;2.63;2.13;;;2.50;99.90;;;;;;4924203;29;20506;-51
2023/03/06 11:39:32;;;;;;;2.87;1.93;;;2.50;99.90;;;;;;4922566;29;20501;-51
2023/03/06 11:42:04;;;;;;;4.50;3.20;;;2.50;99.90;;;;;;4927646;29;20994;-51
2023/03/06 11:44:43;;;;;;;12.40;6.63;;;2.50;99.90;;;;;;4930025;29;21048;-51
2023/03/06 11:47:17;;;;;;;9.27;7.10;;;2.60;99.90;;;;;;4929518;29;20518;-50
2023/03/06 11:49:46;;;;;;;4.93;3.47;;;2.70;99.90;;;;;;4929979;29;20823;-51
2023/03/06 11:52:21;;;;;;;2.93;2.10;;;2.40;99.90;;;;;;4927040;29;20463;-50
2023/03/06 11:54:53;;;;;;;7.27;4.10;;;2.60;99.90;;;;;;4929301;29;20510;-50
2023/03/06 11:57:23;;;;;;;2.70;2.33;;;2.50;99.90;;;;;;4928491;29;20471;-51
2023/03/06 12:00:01;;;;;;;3.20;2.70;;;2.70;99.90;;;;;;4931207;29;20491;-52
2023/03/06 12:02:39;;;;;;;2.20;2.00;;;2.70;99.90;;;;;;4928792;29;20602;-51
2023/03/06 12:05:22;;;;;;;3.50;3.30;;;2.80;99.90;;;;;;4930538;29;21004;-51
2023/03/06 12:08:00;;;;;;;1.67;1.30;;;2.80;99.90;;;;;;4925762;29;20496;-51
2023/03/06 12:10:34;;;;;;;2.50;1.73;;;2.70;99.90;;;;;;4931245;29;20986;-51
2023/03/06 12:13:24;;;;;;;3.23;2.10;;;2.70;99.90;;;;;;4925727;29;20949;-51
2023/03/06 12:16:08;;;;;;;4.10;2.10;;;2.50;99.90;;;;;;4925781;29;20524;-51
2023/03/06 12:18:48;;;;;;;2.20;1.80;;;2.60;99.90;;;;;;4929149;29;21008;-50
2023/03/06 12:21:22;;;;;;;2.50;2.30;;;2.60;99.90;;;;;;4927566;29;20515;-50
2023/03/06 12:24:03;;;;;;;4.93;2.10;;;2.80;99.90;;;;;;4932755;29;20931;-50
2023/03/06 12:26:50;;;;;;;4.20;2.40;;;3.00;99.90;;;;;;4929000;29;20475;-50
2023/03/06 12:29:30;;;;;;;4.30;2.37;;;2.80;99.90;;;;;;4925604;29;20491;-50
2023/03/06 12:32:12;;;;;;;2.83;2.63;;;3.00;99.90;;;;;;4930531;29;20502;-52
2023/03/06 12:35:06;;;;;;;1.50;1.40;;;3.10;99.90;;;;;;4932689;29;20515;-50
2023/03/06 12:37:48;;;;;;;2.90;2.70;;;3.10;99.90;;;;;;4925240;29;20891;-50
2023/03/06 12:40:36;;;;;;;1.83;1.73;;;3.00;99.90;;;;;;4932074;29;20459;-51
2023/03/06 12:43:24;;;;;;;2.87;2.00;;;3.10;35.80;;;;;;4935755;29;20499;-51
2023/03/06 12:45:56;;;;;;;3.73;2.13;;;3.10;93.10;;;;;;4931106;29;20491;-51
2023/03/06 12:48:27;;;;;;;3.07;2.07;;;3.10;32.10;;;;;;4931770;29;20502;-52
2023/03/06 12:50:54;;;;;;;2.90;1.83;;;3.00;25.40;;;;;;4937485;29;20491;-51
2023/03/06 12:53:26;;;;;;;2.63;1.70;;;3.00;27.20;;;;;;4930814;29;20519;-51
2023/03/06 12:55:55;;;;;;;2.73;2.10;;;3.00;99.90;;;;;;4932759;29;20995;-51
2023/03/06 12:58:50;;;;;;;7.47;1.83;;;3.20;99.90;;;;;;4932088;29;21092;-51
2023/03/06 13:01:49;;;;;;;1.80;1.70;;;3.20;99.90;;;;;;4929296;29;20539;-50
2023/03/06 13:04:51;;;;;;;2.83;2.07;;;3.30;99.90;;;;;;4934767;29;20503;-51
2023/03/06 13:07:35;;;;;;;2.63;2.53;;;3.40;99.90;;;;;;4914871;29;20491;-51
2023/03/06 13:10:08;;;;;;;2.33;2.10;;;3.70;29.00;;;;;;4936124;29;20474;-52